sensor_id;sensor_type;location;lat;lon;timestamp;P1;durP1;ratioP1;P2;durP2;ratioP2
19923;SDS011;10124;53.068;18.224;2023-05-10T00:01:32;11.57;;;4.60;;
19923;SDS011;10124;53.068;18.224;2023-05-10T00:04:00;16.87;;;5.87;;
19923;SDS011;10124;53.068;18.224;2023-05-10T00:06:28;9.37;;;4.93;;
19923;SDS011;10124;53.068;18.224;2023-05-10T00:08:56;7.90;;;5.10;;
19923;SDS011;10124;53.068;18.224;2023-05-10T00:11:24;7.27;;;5.10;;
19923;SDS011;10124;53.068;18.224;2023-05-10T00:13:52;9.43;;;4.53;;
19923;SDS011;10124;53.068;18.224;2023-05-10T00:16:19;5.27;;;4.47;;
19923;SDS011;10124;53.068;18.224;2023-05-10T00:18:47;5.97;;;4.10;;
19923;SDS011;10124;53.068;18.224;2023-05-10T00:21:15;5.40;;;3.90;;
19923;SDS011;10124;53.068;18.224;2023-05-10T00:23:42;9.40;;;4.53;;
19923;SDS011;10124;53.068;18.224;2023-05-10T00:26:11;8.97;;;4.20;;
19923;SDS011;10124;53.068;18.224;2023-05-10T00:28:43;4.63;;;4.07;;
19923;SDS011;10124;53.068;18.224;2023-05-10T00:31:11;10.70;;;4.70;;
19923;SDS011;10124;53.068;18.224;2023-05-10T00:33:39;11.77;;;5.50;;
19923;SDS011;10124;53.068;18.224;2023-05-10T00:36:08;11.17;;;5.87;;
19923;SDS011;10124;53.068;18.224;2023-05-10T00:38:36;9.47;;;5.33;;
19923;SDS011;10124;53.068;18.224;2023-05-10T00:41:03;12.60;;;8.33;;
19923;SDS011;10124;53.068;18.224;2023-05-10T00:43:33;18.20;;;10.03;;
19923;SDS011;10124;53.068;18.224;2023-05-10T00:46:03;12.23;;;6.60;;
19923;SDS011;10124;53.068;18.224;2023-05-10T00:48:31;14.03;;;6.97;;
19923;SDS011;10124;53.068;18.224;2023-05-10T00:50:59;8.07;;;5.73;;
19923;SDS011;10124;53.068;18.224;2023-05-10T00:53:28;8.77;;;4.63;;
19923;SDS011;10124;53.068;18.224;2023-05-10T00:55:56;11.23;;;4.97;;
19923;SDS011;10124;53.068;18.224;2023-05-10T00:58:24;7.90;;;4.40;;
19923;SDS011;10124;53.068;18.224;2023-05-10T01:00:55;8.17;;;4.93;;
19923;SDS011;10124;53.068;18.224;2023-05-10T01:03:24;7.53;;;4.77;;
19923;SDS011;10124;53.068;18.224;2023-05-10T01:05:52;7.27;;;4.50;;
19923;SDS011;10124;53.068;18.224;2023-05-10T01:08:19;10.53;;;4.63;;
19923;SDS011;10124;53.068;18.224;2023-05-10T01:10:47;8.30;;;4.73;;
19923;SDS011;10124;53.068;18.224;2023-05-10T01:13:18;8.23;;;4.47;;
19923;SDS011;10124;53.068;18.224;2023-05-10T01:15:50;6.57;;;4.70;;
19923;SDS011;10124;53.068;18.224;2023-05-10T01:18:18;6.77;;;5.13;;
19923;SDS011;10124;53.068;18.224;2023-05-10T01:20:48;10.93;;;4.50;;
19923;SDS011;10124;53.068;18.224;2023-05-10T01:28:38;8.20;;;4.83;;
19923;SDS011;10124;53.068;18.224;2023-05-10T01:31:22;7.53;;;5.43;;
19923;SDS011;10124;53.068;18.224;2023-05-10T01:33:52;15.40;;;9.87;;
19923;SDS011;10124;53.068;18.224;2023-05-10T01:36:24;34.67;;;19.63;;
19923;SDS011;10124;53.068;18.224;2023-05-10T01:41:32;24.13;;;12.17;;
19923;SDS011;10124;53.068;18.224;2023-05-10T01:46:32;20.00;;;9.43;;
19923;SDS011;10124;53.068;18.224;2023-05-10T01:49:03;13.27;;;8.67;;
19923;SDS011;10124;53.068;18.224;2023-05-10T01:51:36;13.03;;;7.43;;
19923;SDS011;10124;53.068;18.224;2023-05-10T01:54:06;12.77;;;6.67;;
19923;SDS011;10124;53.068;18.224;2023-05-10T01:56:35;12.97;;;6.73;;
19923;SDS011;10124;53.068;18.224;2023-05-10T01:59:05;8.83;;;6.27;;
19923;SDS011;10124;53.068;18.224;2023-05-10T02:01:37;8.63;;;6.20;;
19923;SDS011;10124;53.068;18.224;2023-05-10T02:04:07;11.00;;;6.30;;
19923;SDS011;10124;53.068;18.224;2023-05-10T02:06:36;8.90;;;5.93;;
19923;SDS011;10124;53.068;18.224;2023-05-10T02:09:05;7.20;;;6.10;;
19923;SDS011;10124;53.068;18.224;2023-05-10T02:11:35;9.27;;;5.97;;
19923;SDS011;10124;53.068;18.224;2023-05-10T02:14:05;8.70;;;5.60;;
19923;SDS011;10124;53.068;18.224;2023-05-10T02:16:35;11.90;;;6.10;;
19923;SDS011;10124;53.068;18.224;2023-05-10T02:19:02;12.77;;;8.07;;
19923;SDS011;10124;53.068;18.224;2023-05-10T02:21:30;15.67;;;8.37;;
19923;SDS011;10124;53.068;18.224;2023-05-10T02:23:59;15.03;;;10.07;;
19923;SDS011;10124;53.068;18.224;2023-05-10T02:26:29;13.77;;;8.43;;
19923;SDS011;10124;53.068;18.224;2023-05-10T02:28:57;10.33;;;8.63;;
19923;SDS011;10124;53.068;18.224;2023-05-10T02:31:27;12.20;;;8.27;;
19923;SDS011;10124;53.068;18.224;2023-05-10T02:33:55;16.03;;;7.97;;
19923;SDS011;10124;53.068;18.224;2023-05-10T02:36:23;14.80;;;8.80;;
19923;SDS011;10124;53.068;18.224;2023-05-10T02:38:51;24.33;;;13.27;;
19923;SDS011;10124;53.068;18.224;2023-05-10T02:41:23;16.93;;;11.17;;
19923;SDS011;10124;53.068;18.224;2023-05-10T02:43:51;18.47;;;11.60;;
19923;SDS011;10124;53.068;18.224;2023-05-10T02:46:20;17.17;;;10.80;;
19923;SDS011;10124;53.068;18.224;2023-05-10T02:48:48;21.07;;;9.50;;
19923;SDS011;10124;53.068;18.224;2023-05-10T02:51:16;16.50;;;11.23;;
19923;SDS011;10124;53.068;18.224;2023-05-10T02:53:46;12.23;;;8.07;;
19923;SDS011;10124;53.068;18.224;2023-05-10T02:56:15;11.13;;;7.63;;
19923;SDS011;10124;53.068;18.224;2023-05-10T02:58:46;11.60;;;6.60;;
19923;SDS011;10124;53.068;18.224;2023-05-10T03:01:14;12.87;;;8.90;;
19923;SDS011;10124;53.068;18.224;2023-05-10T03:03:43;10.97;;;7.73;;
19923;SDS011;10124;53.068;18.224;2023-05-10T03:06:11;12.67;;;7.77;;
19923;SDS011;10124;53.068;18.224;2023-05-10T03:08:39;15.23;;;8.73;;
19923;SDS011;10124;53.068;18.224;2023-05-10T03:13:50;14.17;;;8.20;;
19923;SDS011;10124;53.068;18.224;2023-05-10T03:16:22;14.50;;;7.63;;
19923;SDS011;10124;53.068;18.224;2023-05-10T03:19:01;13.00;;;7.53;;
19923;SDS011;10124;53.068;18.224;2023-05-10T03:21:32;14.80;;;8.00;;
19923;SDS011;10124;53.068;18.224;2023-05-10T03:24:04;12.90;;;7.83;;
19923;SDS011;10124;53.068;18.224;2023-05-10T03:26:34;12.20;;;7.53;;
19923;SDS011;10124;53.068;18.224;2023-05-10T03:29:07;13.83;;;7.43;;
19923;SDS011;10124;53.068;18.224;2023-05-10T03:31:37;12.60;;;7.23;;
19923;SDS011;10124;53.068;18.224;2023-05-10T03:34:05;14.20;;;7.47;;
19923;SDS011;10124;53.068;18.224;2023-05-10T03:36:33;13.90;;;7.17;;
19923;SDS011;10124;53.068;18.224;2023-05-10T03:39:01;12.07;;;6.83;;
19923;SDS011;10124;53.068;18.224;2023-05-10T03:41:30;15.80;;;7.30;;
19923;SDS011;10124;53.068;18.224;2023-05-10T03:43:57;12.30;;;7.03;;
19923;SDS011;10124;53.068;18.224;2023-05-10T03:46:25;15.00;;;7.00;;
19923;SDS011;10124;53.068;18.224;2023-05-10T03:48:53;11.43;;;6.50;;
19923;SDS011;10124;53.068;18.224;2023-05-10T03:51:21;27.63;;;7.23;;
19923;SDS011;10124;53.068;18.224;2023-05-10T03:53:48;13.13;;;7.53;;
19923;SDS011;10124;53.068;18.224;2023-05-10T03:56:16;14.53;;;7.00;;
19923;SDS011;10124;53.068;18.224;2023-05-10T03:58:44;15.80;;;6.97;;
19923;SDS011;10124;53.068;18.224;2023-05-10T04:01:12;13.70;;;6.50;;
19923;SDS011;10124;53.068;18.224;2023-05-10T04:03:40;11.37;;;6.40;;
19923;SDS011;10124;53.068;18.224;2023-05-10T04:06:08;8.17;;;6.60;;
19923;SDS011;10124;53.068;18.224;2023-05-10T04:08:38;14.30;;;7.07;;
19923;SDS011;10124;53.068;18.224;2023-05-10T04:11:06;13.37;;;6.40;;
19923;SDS011;10124;53.068;18.224;2023-05-10T04:13:34;9.57;;;6.20;;
19923;SDS011;10124;53.068;18.224;2023-05-10T04:16:02;12.03;;;6.07;;
19923;SDS011;10124;53.068;18.224;2023-05-10T04:18:30;10.00;;;5.73;;
19923;SDS011;10124;53.068;18.224;2023-05-10T04:20:58;10.50;;;5.93;;
19923;SDS011;10124;53.068;18.224;2023-05-10T04:23:26;9.07;;;6.37;;
19923;SDS011;10124;53.068;18.224;2023-05-10T04:26:00;12.30;;;7.03;;
19923;SDS011;10124;53.068;18.224;2023-05-10T04:28:28;12.40;;;6.00;;
19923;SDS011;10124;53.068;18.224;2023-05-10T04:33:31;10.73;;;5.83;;
19923;SDS011;10124;53.068;18.224;2023-05-10T04:35:59;11.17;;;5.90;;
19923;SDS011;10124;53.068;18.224;2023-05-10T04:38:27;8.27;;;4.97;;
19923;SDS011;10124;53.068;18.224;2023-05-10T04:41:08;19.60;;;6.20;;
19923;SDS011;10124;53.068;18.224;2023-05-10T04:43:36;11.17;;;5.80;;
19923;SDS011;10124;53.068;18.224;2023-05-10T04:46:04;9.43;;;5.17;;
19923;SDS011;10124;53.068;18.224;2023-05-10T04:48:32;7.50;;;5.27;;
19923;SDS011;10124;53.068;18.224;2023-05-10T04:51:00;8.13;;;4.80;;
19923;SDS011;10124;53.068;18.224;2023-05-10T04:53:30;11.43;;;4.87;;
19923;SDS011;10124;53.068;18.224;2023-05-10T04:55:58;11.80;;;5.60;;
19923;SDS011;10124;53.068;18.224;2023-05-10T04:58:25;7.47;;;4.90;;
19923;SDS011;10124;53.068;18.224;2023-05-10T05:00:53;8.33;;;4.87;;
19923;SDS011;10124;53.068;18.224;2023-05-10T05:03:21;13.77;;;5.00;;
19923;SDS011;10124;53.068;18.224;2023-05-10T05:05:49;8.37;;;4.50;;
19923;SDS011;10124;53.068;18.224;2023-05-10T05:08:17;6.73;;;4.80;;
19923;SDS011;10124;53.068;18.224;2023-05-10T05:10:45;9.50;;;4.77;;
19923;SDS011;10124;53.068;18.224;2023-05-10T05:13:12;10.27;;;5.10;;
19923;SDS011;10124;53.068;18.224;2023-05-10T05:15:40;10.90;;;4.73;;
19923;SDS011;10124;53.068;18.224;2023-05-10T05:18:08;8.83;;;5.20;;
19923;SDS011;10124;53.068;18.224;2023-05-10T05:20:36;8.93;;;4.37;;
19923;SDS011;10124;53.068;18.224;2023-05-10T05:23:04;9.00;;;4.40;;
19923;SDS011;10124;53.068;18.224;2023-05-10T05:25:31;7.47;;;4.17;;
19923;SDS011;10124;53.068;18.224;2023-05-10T05:27:59;12.50;;;4.23;;
19923;SDS011;10124;53.068;18.224;2023-05-10T05:30:27;8.87;;;4.37;;
19923;SDS011;10124;53.068;18.224;2023-05-10T05:32:54;10.37;;;4.10;;
19923;SDS011;10124;53.068;18.224;2023-05-10T05:35:22;12.87;;;4.37;;
19923;SDS011;10124;53.068;18.224;2023-05-10T05:37:50;10.17;;;3.90;;
19923;SDS011;10124;53.068;18.224;2023-05-10T05:40:17;7.43;;;4.00;;
19923;SDS011;10124;53.068;18.224;2023-05-10T05:42:46;6.30;;;3.60;;
19923;SDS011;10124;53.068;18.224;2023-05-10T05:45:14;9.63;;;3.70;;
19923;SDS011;10124;53.068;18.224;2023-05-10T05:47:42;7.67;;;3.53;;
19923;SDS011;10124;53.068;18.224;2023-05-10T05:50:10;14.67;;;4.00;;
19923;SDS011;10124;53.068;18.224;2023-05-10T05:52:38;9.07;;;3.87;;
19923;SDS011;10124;53.068;18.224;2023-05-10T05:55:06;7.80;;;3.23;;
19923;SDS011;10124;53.068;18.224;2023-05-10T05:57:34;6.37;;;3.27;;
19923;SDS011;10124;53.068;18.224;2023-05-10T06:00:01;7.97;;;2.87;;
19923;SDS011;10124;53.068;18.224;2023-05-10T06:02:38;16.70;;;3.50;;
19923;SDS011;10124;53.068;18.224;2023-05-10T06:05:06;8.67;;;3.03;;
19923;SDS011;10124;53.068;18.224;2023-05-10T06:07:34;10.53;;;3.03;;
19923;SDS011;10124;53.068;18.224;2023-05-10T06:10:02;6.47;;;3.20;;
19923;SDS011;10124;53.068;18.224;2023-05-10T06:12:30;8.10;;;3.20;;
19923;SDS011;10124;53.068;18.224;2023-05-10T06:14:57;5.83;;;3.53;;
19923;SDS011;10124;53.068;18.224;2023-05-10T06:17:25;6.23;;;3.13;;
19923;SDS011;10124;53.068;18.224;2023-05-10T06:19:53;6.57;;;2.70;;
19923;SDS011;10124;53.068;18.224;2023-05-10T06:22:20;17.20;;;3.40;;
19923;SDS011;10124;53.068;18.224;2023-05-10T06:24:49;11.30;;;3.05;;
19923;SDS011;10124;53.068;18.224;2023-05-10T06:27:16;12.15;;;2.90;;
19923;SDS011;10124;53.068;18.224;2023-05-10T06:29:44;5.88;;;2.72;;
19923;SDS011;10124;53.068;18.224;2023-05-10T06:32:11;7.55;;;2.72;;
19923;SDS011;10124;53.068;18.224;2023-05-10T06:34:39;6.47;;;2.67;;
19923;SDS011;10124;53.068;18.224;2023-05-10T06:37:07;6.07;;;2.75;;
19923;SDS011;10124;53.068;18.224;2023-05-10T06:39:34;7.28;;;2.75;;
19923;SDS011;10124;53.068;18.224;2023-05-10T06:42:02;16.80;;;3.10;;
19923;SDS011;10124;53.068;18.224;2023-05-10T06:44:32;26.02;;;3.20;;
19923;SDS011;10124;53.068;18.224;2023-05-10T06:46:59;18.02;;;3.35;;
19923;SDS011;10124;53.068;18.224;2023-05-10T06:49:27;7.25;;;2.40;;
19923;SDS011;10124;53.068;18.224;2023-05-10T06:51:57;6.15;;;2.78;;
19923;SDS011;10124;53.068;18.224;2023-05-10T06:54:25;10.13;;;2.53;;
19923;SDS011;10124;53.068;18.224;2023-05-10T06:56:53;4.72;;;2.33;;
19923;SDS011;10124;53.068;18.224;2023-05-10T06:59:20;6.32;;;2.00;;
19923;SDS011;10124;53.068;18.224;2023-05-10T07:01:48;7.32;;;2.45;;
19923;SDS011;10124;53.068;18.224;2023-05-10T07:04:16;7.30;;;2.17;;
19923;SDS011;10124;53.068;18.224;2023-05-10T07:06:44;16.80;;;3.13;;
19923;SDS011;10124;53.068;18.224;2023-05-10T07:09:12;14.00;;;2.88;;
19923;SDS011;10124;53.068;18.224;2023-05-10T07:11:40;9.18;;;2.65;;
19923;SDS011;10124;53.068;18.224;2023-05-10T07:14:08;2.83;;;2.13;;
19923;SDS011;10124;53.068;18.224;2023-05-10T07:16:36;8.02;;;2.97;;
19923;SDS011;10124;53.068;18.224;2023-05-10T07:19:04;8.80;;;2.50;;
19923;SDS011;10124;53.068;18.224;2023-05-10T07:21:32;6.47;;;2.35;;
19923;SDS011;10124;53.068;18.224;2023-05-10T07:24:00;6.18;;;2.60;;
19923;SDS011;10124;53.068;18.224;2023-05-10T07:26:28;23.42;;;3.10;;
19923;SDS011;10124;53.068;18.224;2023-05-10T07:28:56;8.43;;;2.67;;
19923;SDS011;10124;53.068;18.224;2023-05-10T07:31:23;98.47;;;8.93;;
19923;SDS011;10124;53.068;18.224;2023-05-10T07:33:51;22.02;;;3.15;;
19923;SDS011;10124;53.068;18.224;2023-05-10T07:36:19;10.48;;;2.67;;
19923;SDS011;10124;53.068;18.224;2023-05-10T07:38:47;11.38;;;2.45;;
19923;SDS011;10124;53.068;18.224;2023-05-10T07:41:16;9.13;;;2.35;;
19923;SDS011;10124;53.068;18.224;2023-05-10T07:43:44;10.18;;;2.38;;
19923;SDS011;10124;53.068;18.224;2023-05-10T07:46:11;9.65;;;2.47;;
19923;SDS011;10124;53.068;18.224;2023-05-10T07:48:39;4.40;;;2.20;;
19923;SDS011;10124;53.068;18.224;2023-05-10T07:51:06;14.65;;;3.10;;
19923;SDS011;10124;53.068;18.224;2023-05-10T07:53:36;11.98;;;2.67;;
19923;SDS011;10124;53.068;18.224;2023-05-10T07:58:56;8.30;;;2.15;;
19923;SDS011;10124;53.068;18.224;2023-05-10T08:01:24;21.17;;;3.13;;
19923;SDS011;10124;53.068;18.224;2023-05-10T08:03:52;13.95;;;2.25;;
19923;SDS011;10124;53.068;18.224;2023-05-10T08:06:20;9.75;;;2.35;;
19923;SDS011;10124;53.068;18.224;2023-05-10T08:08:48;14.40;;;3.13;;
19923;SDS011;10124;53.068;18.224;2023-05-10T08:11:17;10.75;;;2.17;;
19923;SDS011;10124;53.068;18.224;2023-05-10T08:13:45;12.40;;;2.35;;
19923;SDS011;10124;53.068;18.224;2023-05-10T08:16:13;5.35;;;2.08;;
19923;SDS011;10124;53.068;18.224;2023-05-10T08:18:40;8.57;;;1.80;;
19923;SDS011;10124;53.068;18.224;2023-05-10T08:21:08;8.38;;;2.05;;
19923;SDS011;10124;53.068;18.224;2023-05-10T08:23:41;4.90;;;1.63;;
19923;SDS011;10124;53.068;18.224;2023-05-10T08:26:11;19.48;;;2.92;;
19923;SDS011;10124;53.068;18.224;2023-05-10T08:28:38;13.73;;;3.00;;
19923;SDS011;10124;53.068;18.224;2023-05-10T08:31:06;12.77;;;2.20;;
19923;SDS011;10124;53.068;18.224;2023-05-10T08:33:33;8.75;;;1.77;;
19923;SDS011;10124;53.068;18.224;2023-05-10T08:36:01;13.43;;;2.47;;
19923;SDS011;10124;53.068;18.224;2023-05-10T08:38:28;3.63;;;1.73;;
19923;SDS011;10124;53.068;18.224;2023-05-10T08:40:56;8.75;;;2.65;;
19923;SDS011;10124;53.068;18.224;2023-05-10T08:43:26;16.80;;;2.40;;
19923;SDS011;10124;53.068;18.224;2023-05-10T08:46:00;10.98;;;2.50;;
19923;SDS011;10124;53.068;18.224;2023-05-10T08:48:29;12.95;;;2.42;;
19923;SDS011;10124;53.068;18.224;2023-05-10T08:50:58;35.13;;;3.45;;
19923;SDS011;10124;53.068;18.224;2023-05-10T08:53:26;15.57;;;2.47;;
19923;SDS011;10124;53.068;18.224;2023-05-10T08:55:58;6.93;;;2.08;;
19923;SDS011;10124;53.068;18.224;2023-05-10T08:58:25;12.38;;;2.33;;
19923;SDS011;10124;53.068;18.224;2023-05-10T09:01:05;11.88;;;2.83;;
19923;SDS011;10124;53.068;18.224;2023-05-10T09:03:33;64.15;;;6.32;;
19923;SDS011;10124;53.068;18.224;2023-05-10T09:06:01;16.58;;;2.47;;
19923;SDS011;10124;53.068;18.224;2023-05-10T09:08:29;16.80;;;2.38;;
19923;SDS011;10124;53.068;18.224;2023-05-10T09:10:58;12.55;;;2.45;;
19923;SDS011;10124;53.068;18.224;2023-05-10T09:13:28;14.10;;;2.47;;
19923;SDS011;10124;53.068;18.224;2023-05-10T09:15:56;7.50;;;1.77;;
19923;SDS011;10124;53.068;18.224;2023-05-10T09:18:32;8.05;;;2.00;;
19923;SDS011;10124;53.068;18.224;2023-05-10T09:21:00;17.02;;;3.20;;
19923;SDS011;10124;53.068;18.224;2023-05-10T09:23:28;15.63;;;1.80;;
19923;SDS011;10124;53.068;18.224;2023-05-10T09:26:02;9.77;;;2.28;;
19923;SDS011;10124;53.068;18.224;2023-05-10T09:28:32;5.55;;;2.10;;
19923;SDS011;10124;53.068;18.224;2023-05-10T09:31:00;47.30;;;5.82;;
19923;SDS011;10124;53.068;18.224;2023-05-10T09:33:28;29.50;;;4.13;;
19923;SDS011;10124;53.068;18.224;2023-05-10T09:36:05;8.77;;;2.42;;
19923;SDS011;10124;53.068;18.224;2023-05-10T09:38:45;14.05;;;2.45;;
19923;SDS011;10124;53.068;18.224;2023-05-10T09:41:21;10.65;;;2.30;;
19923;SDS011;10124;53.068;18.224;2023-05-10T09:43:50;12.00;;;2.35;;
19923;SDS011;10124;53.068;18.224;2023-05-10T09:46:22;19.25;;;3.67;;
19923;SDS011;10124;53.068;18.224;2023-05-10T09:48:49;6.30;;;1.73;;
19923;SDS011;10124;53.068;18.224;2023-05-10T09:51:22;8.48;;;1.92;;
19923;SDS011;10124;53.068;18.224;2023-05-10T09:56:38;13.02;;;2.40;;
19923;SDS011;10124;53.068;18.224;2023-05-10T09:59:09;11.65;;;2.10;;
19923;SDS011;10124;53.068;18.224;2023-05-10T10:01:38;6.45;;;2.15;;
19923;SDS011;10124;53.068;18.224;2023-05-10T10:04:08;17.27;;;2.78;;
19923;SDS011;10124;53.068;18.224;2023-05-10T10:06:39;13.18;;;2.13;;
19923;SDS011;10124;53.068;18.224;2023-05-10T10:09:12;19.55;;;2.95;;
19923;SDS011;10124;53.068;18.224;2023-05-10T10:11:41;5.78;;;2.38;;
19923;SDS011;10124;53.068;18.224;2023-05-10T10:14:08;8.70;;;2.08;;
19923;SDS011;10124;53.068;18.224;2023-05-10T10:16:36;6.32;;;1.95;;
19923;SDS011;10124;53.068;18.224;2023-05-10T10:19:20;6.43;;;1.95;;
19923;SDS011;10124;53.068;18.224;2023-05-10T10:21:51;12.93;;;2.10;;
19923;SDS011;10124;53.068;18.224;2023-05-10T10:24:19;6.93;;;2.20;;
19923;SDS011;10124;53.068;18.224;2023-05-10T10:26:47;12.52;;;2.17;;
19923;SDS011;10124;53.068;18.224;2023-05-10T10:29:21;26.35;;;3.28;;
19923;SDS011;10124;53.068;18.224;2023-05-10T10:32:18;48.45;;;3.65;;
19923;SDS011;10124;53.068;18.224;2023-05-10T10:34:47;33.03;;;4.32;;
19923;SDS011;10124;53.068;18.224;2023-05-10T10:37:16;12.48;;;2.42;;
19923;SDS011;10124;53.068;18.224;2023-05-10T10:39:43;9.77;;;2.30;;
19923;SDS011;10124;53.068;18.224;2023-05-10T10:42:11;16.45;;;2.85;;
19923;SDS011;10124;53.068;18.224;2023-05-10T10:44:38;25.60;;;3.47;;
19923;SDS011;10124;53.068;18.224;2023-05-10T10:52:37;8.75;;;2.05;;
19923;SDS011;10124;53.068;18.224;2023-05-10T10:55:05;20.52;;;3.08;;
19923;SDS011;10124;53.068;18.224;2023-05-10T11:03:06;12.73;;;3.03;;
19923;SDS011;10124;53.068;18.224;2023-05-10T11:05:41;24.52;;;2.95;;
19923;SDS011;10124;53.068;18.224;2023-05-10T11:08:11;18.65;;;2.85;;
19923;SDS011;10124;53.068;18.224;2023-05-10T11:10:53;8.05;;;2.10;;
19923;SDS011;10124;53.068;18.224;2023-05-10T11:16:18;3.88;;;1.83;;
19923;SDS011;10124;53.068;18.224;2023-05-10T11:21:32;10.38;;;2.28;;
19923;SDS011;10124;53.068;18.224;2023-05-10T11:24:01;7.38;;;2.10;;
19923;SDS011;10124;53.068;18.224;2023-05-10T11:26:35;12.40;;;2.47;;
19923;SDS011;10124;53.068;18.224;2023-05-10T11:29:04;6.32;;;2.17;;
19923;SDS011;10124;53.068;18.224;2023-05-10T11:31:31;14.10;;;2.53;;
19923;SDS011;10124;53.068;18.224;2023-05-10T11:33:59;9.85;;;2.15;;
19923;SDS011;10124;53.068;18.224;2023-05-10T11:36:33;9.05;;;2.15;;
19923;SDS011;10124;53.068;18.224;2023-05-10T11:39:03;9.85;;;2.25;;
19923;SDS011;10124;53.068;18.224;2023-05-10T11:41:33;15.05;;;2.30;;
19923;SDS011;10124;53.068;18.224;2023-05-10T11:44:03;8.18;;;2.17;;
19923;SDS011;10124;53.068;18.224;2023-05-10T11:46:30;8.38;;;2.53;;
19923;SDS011;10124;53.068;18.224;2023-05-10T11:49:01;7.72;;;2.20;;
19923;SDS011;10124;53.068;18.224;2023-05-10T11:51:33;22.58;;;3.25;;
19923;SDS011;10124;53.068;18.224;2023-05-10T11:54:05;15.25;;;2.25;;
19923;SDS011;10124;53.068;18.224;2023-05-10T11:56:36;11.93;;;2.38;;
19923;SDS011;10124;53.068;18.224;2023-05-10T11:59:05;10.98;;;2.30;;
19923;SDS011;10124;53.068;18.224;2023-05-10T12:01:33;12.38;;;2.20;;
19923;SDS011;10124;53.068;18.224;2023-05-10T12:04:01;26.23;;;4.13;;
19923;SDS011;10124;53.068;18.224;2023-05-10T12:06:30;11.65;;;2.08;;
19923;SDS011;10124;53.068;18.224;2023-05-10T12:09:05;7.88;;;2.20;;
19923;SDS011;10124;53.068;18.224;2023-05-10T12:11:36;14.18;;;2.28;;
19923;SDS011;10124;53.068;18.224;2023-05-10T12:14:10;10.35;;;2.50;;
19923;SDS011;10124;53.068;18.224;2023-05-10T12:16:39;18.63;;;3.20;;
19923;SDS011;10124;53.068;18.224;2023-05-10T12:19:07;18.73;;;2.95;;
19923;SDS011;10124;53.068;18.224;2023-05-10T12:21:34;7.65;;;2.30;;
19923;SDS011;10124;53.068;18.224;2023-05-10T12:24:03;8.50;;;2.38;;
19923;SDS011;10124;53.068;18.224;2023-05-10T12:26:31;16.15;;;2.55;;
19923;SDS011;10124;53.068;18.224;2023-05-10T12:29:15;8.13;;;2.10;;
19923;SDS011;10124;53.068;18.224;2023-05-10T12:31:54;5.05;;;1.70;;
19923;SDS011;10124;53.068;18.224;2023-05-10T12:34:41;24.10;;;3.50;;
19923;SDS011;10124;53.068;18.224;2023-05-10T12:37:08;29.10;;;5.00;;
19923;SDS011;10124;53.068;18.224;2023-05-10T12:42:11;11.23;;;1.92;;
19923;SDS011;10124;53.068;18.224;2023-05-10T12:44:39;18.38;;;2.25;;
19923;SDS011;10124;53.068;18.224;2023-05-10T12:47:06;9.23;;;2.28;;
19923;SDS011;10124;53.068;18.224;2023-05-10T12:49:34;8.52;;;2.47;;
19923;SDS011;10124;53.068;18.224;2023-05-10T12:52:02;7.40;;;1.80;;
19923;SDS011;10124;53.068;18.224;2023-05-10T12:54:29;35.05;;;4.28;;
19923;SDS011;10124;53.068;18.224;2023-05-10T12:56:57;9.73;;;2.05;;
19923;SDS011;10124;53.068;18.224;2023-05-10T12:59:25;5.95;;;2.22;;
19923;SDS011;10124;53.068;18.224;2023-05-10T13:01:52;9.27;;;2.17;;
19923;SDS011;10124;53.068;18.224;2023-05-10T13:04:20;19.40;;;3.15;;
19923;SDS011;10124;53.068;18.224;2023-05-10T13:06:47;6.47;;;2.58;;
19923;SDS011;10124;53.068;18.224;2023-05-10T13:09:15;10.77;;;2.42;;
19923;SDS011;10124;53.068;18.224;2023-05-10T13:11:43;11.30;;;1.85;;
19923;SDS011;10124;53.068;18.224;2023-05-10T13:14:12;12.50;;;2.55;;
19923;SDS011;10124;53.068;18.224;2023-05-10T13:16:40;4.10;;;1.63;;
19923;SDS011;10124;53.068;18.224;2023-05-10T13:19:08;14.40;;;2.15;;
19923;SDS011;10124;53.068;18.224;2023-05-10T13:21:40;9.18;;;2.05;;
19923;SDS011;10124;53.068;18.224;2023-05-10T13:24:12;5.97;;;2.08;;
19923;SDS011;10124;53.068;18.224;2023-05-10T13:26:43;7.55;;;2.35;;
19923;SDS011;10124;53.068;18.224;2023-05-10T13:29:11;10.32;;;2.20;;
19923;SDS011;10124;53.068;18.224;2023-05-10T13:31:39;10.02;;;2.15;;
19923;SDS011;10124;53.068;18.224;2023-05-10T13:34:07;20.42;;;2.78;;
19923;SDS011;10124;53.068;18.224;2023-05-10T13:36:35;8.50;;;2.25;;
19923;SDS011;10124;53.068;18.224;2023-05-10T13:39:02;7.72;;;2.08;;
19923;SDS011;10124;53.068;18.224;2023-05-10T13:41:31;11.50;;;2.78;;
19923;SDS011;10124;53.068;18.224;2023-05-10T13:44:00;9.27;;;2.67;;
19923;SDS011;10124;53.068;18.224;2023-05-10T13:46:28;12.55;;;2.70;;
19923;SDS011;10124;53.068;18.224;2023-05-10T13:48:57;12.25;;;2.13;;
19923;SDS011;10124;53.068;18.224;2023-05-10T13:51:27;6.78;;;2.20;;
19923;SDS011;10124;53.068;18.224;2023-05-10T13:53:55;20.48;;;3.35;;
19923;SDS011;10124;53.068;18.224;2023-05-10T14:00:06;17.23;;;2.75;;
19923;SDS011;10124;53.068;18.224;2023-05-10T14:02:35;23.95;;;3.42;;
19923;SDS011;10124;53.068;18.224;2023-05-10T14:05:04;17.58;;;2.85;;
19923;SDS011;10124;53.068;18.224;2023-05-10T14:07:31;7.32;;;2.50;;
19923;SDS011;10124;53.068;18.224;2023-05-10T14:10:00;6.82;;;2.28;;
19923;SDS011;10124;53.068;18.224;2023-05-10T14:12:27;10.95;;;2.97;;
19923;SDS011;10124;53.068;18.224;2023-05-10T14:14:56;20.52;;;3.25;;
19923;SDS011;10124;53.068;18.224;2023-05-10T14:17:25;13.27;;;2.42;;
19923;SDS011;10124;53.068;18.224;2023-05-10T14:19:52;6.22;;;2.30;;
19923;SDS011;10124;53.068;18.224;2023-05-10T14:22:20;15.30;;;2.25;;
19923;SDS011;10124;53.068;18.224;2023-05-10T14:24:48;16.50;;;1.92;;
19923;SDS011;10124;53.068;18.224;2023-05-10T14:27:15;7.75;;;2.40;;
19923;SDS011;10124;53.068;18.224;2023-05-10T14:29:43;16.92;;;2.95;;
19923;SDS011;10124;53.068;18.224;2023-05-10T14:32:11;6.15;;;2.13;;
19923;SDS011;10124;53.068;18.224;2023-05-10T14:34:39;21.98;;;3.53;;
19923;SDS011;10124;53.068;18.224;2023-05-10T14:37:06;18.95;;;3.33;;
19923;SDS011;10124;53.068;18.224;2023-05-10T14:39:35;13.73;;;2.88;;
19923;SDS011;10124;53.068;18.224;2023-05-10T14:42:05;6.13;;;2.60;;
19923;SDS011;10124;53.068;18.224;2023-05-10T14:44:34;10.75;;;2.35;;
19923;SDS011;10124;53.068;18.224;2023-05-10T14:47:02;15.07;;;2.63;;
19923;SDS011;10124;53.068;18.224;2023-05-10T14:49:30;6.40;;;2.00;;
19923;SDS011;10124;53.068;18.224;2023-05-10T14:51:57;9.40;;;2.17;;
19923;SDS011;10124;53.068;18.224;2023-05-10T14:57:33;5.28;;;2.30;;
19923;SDS011;10124;53.068;18.224;2023-05-10T15:00:02;6.32;;;2.28;;
19923;SDS011;10124;53.068;18.224;2023-05-10T15:02:31;11.93;;;2.47;;
19923;SDS011;10124;53.068;18.224;2023-05-10T15:05:00;11.68;;;2.53;;
19923;SDS011;10124;53.068;18.224;2023-05-10T15:07:40;12.50;;;2.42;;
19923;SDS011;10124;53.068;18.224;2023-05-10T15:10:10;8.68;;;2.45;;
19923;SDS011;10124;53.068;18.224;2023-05-10T15:12:38;3.90;;;2.40;;
19923;SDS011;10124;53.068;18.224;2023-05-10T15:15:06;11.52;;;2.60;;
19923;SDS011;10124;53.068;18.224;2023-05-10T15:17:34;11.85;;;2.67;;
19923;SDS011;10124;53.068;18.224;2023-05-10T15:20:02;9.25;;;2.65;;
19923;SDS011;10124;53.068;18.224;2023-05-10T15:22:30;7.88;;;2.40;;
19923;SDS011;10124;53.068;18.224;2023-05-10T15:25:00;6.07;;;2.50;;